sensor_id;sensor_type;location;lat;lon;timestamp;P1;durP1;ratioP1;P2;durP2;ratioP2
19406;SDS011;9839;53.364;-1.204;2023-05-10T00:01:27;16.50;;;3.73;;
19406;SDS011;9839;53.364;-1.204;2023-05-10T00:03:52;11.37;;;3.50;;
19406;SDS011;9839;53.364;-1.204;2023-05-10T00:06:18;16.80;;;3.30;;
19406;SDS011;9839;53.364;-1.204;2023-05-10T00:08:43;16.70;;;3.87;;
19406;SDS011;9839;53.364;-1.204;2023-05-10T00:11:10;9.27;;;3.23;;
19406;SDS011;9839;53.364;-1.204;2023-05-10T00:13:35;10.07;;;2.60;;
19406;SDS011;9839;53.364;-1.204;2023-05-10T00:16:01;12.50;;;2.90;;
19406;SDS011;9839;53.364;-1.204;2023-05-10T00:18:26;13.43;;;2.83;;
19406;SDS011;9839;53.364;-1.204;2023-05-10T00:20:52;11.10;;;2.70;;
19406;SDS011;9839;53.364;-1.204;2023-05-10T00:23:17;12.83;;;2.27;;
19406;SDS011;9839;53.364;-1.204;2023-05-10T00:25:42;11.67;;;2.70;;
19406;SDS011;9839;53.364;-1.204;2023-05-10T00:28:08;17.00;;;2.60;;
19406;SDS011;9839;53.364;-1.204;2023-05-10T00:30:33;12.20;;;2.80;;
19406;SDS011;9839;53.364;-1.204;2023-05-10T00:32:59;11.43;;;2.40;;
19406;SDS011;9839;53.364;-1.204;2023-05-10T00:35:25;14.90;;;2.73;;
19406;SDS011;9839;53.364;-1.204;2023-05-10T00:37:51;10.20;;;2.80;;
19406;SDS011;9839;53.364;-1.204;2023-05-10T00:40:16;9.40;;;2.60;;
19406;SDS011;9839;53.364;-1.204;2023-05-10T00:42:42;12.20;;;3.10;;
19406;SDS011;9839;53.364;-1.204;2023-05-10T00:45:07;11.20;;;2.47;;
19406;SDS011;9839;53.364;-1.204;2023-05-10T00:47:33;9.50;;;1.87;;
19406;SDS011;9839;53.364;-1.204;2023-05-10T00:49:59;6.43;;;2.33;;
19406;SDS011;9839;53.364;-1.204;2023-05-10T00:52:26;9.60;;;2.50;;
19406;SDS011;9839;53.364;-1.204;2023-05-10T00:54:52;10.27;;;3.00;;
19406;SDS011;9839;53.364;-1.204;2023-05-10T00:57:18;15.43;;;2.53;;
19406;SDS011;9839;53.364;-1.204;2023-05-10T00:59:43;7.23;;;2.40;;
19406;SDS011;9839;53.364;-1.204;2023-05-10T01:02:09;9.70;;;2.67;;
19406;SDS011;9839;53.364;-1.204;2023-05-10T01:04:34;7.70;;;2.43;;
19406;SDS011;9839;53.364;-1.204;2023-05-10T01:07:00;11.10;;;2.60;;
19406;SDS011;9839;53.364;-1.204;2023-05-10T01:09:26;8.47;;;2.27;;
19406;SDS011;9839;53.364;-1.204;2023-05-10T01:11:52;11.13;;;2.47;;
19406;SDS011;9839;53.364;-1.204;2023-05-10T01:14:19;11.00;;;2.53;;
19406;SDS011;9839;53.364;-1.204;2023-05-10T01:16:45;9.60;;;2.63;;
19406;SDS011;9839;53.364;-1.204;2023-05-10T01:19:17;11.60;;;3.00;;
19406;SDS011;9839;53.364;-1.204;2023-05-10T01:35:15;11.63;;;2.57;;
19406;SDS011;9839;53.364;-1.204;2023-05-10T01:37:54;10.03;;;3.20;;
19406;SDS011;9839;53.364;-1.204;2023-05-10T01:40:26;14.13;;;3.10;;
19406;SDS011;9839;53.364;-1.204;2023-05-10T01:43:01;13.30;;;3.00;;
19406;SDS011;9839;53.364;-1.204;2023-05-10T01:45:31;13.33;;;2.27;;
19406;SDS011;9839;53.364;-1.204;2023-05-10T01:48:08;13.90;;;3.43;;
19406;SDS011;9839;53.364;-1.204;2023-05-10T01:50:36;10.87;;;2.37;;
19406;SDS011;9839;53.364;-1.204;2023-05-10T01:53:02;11.57;;;3.27;;
19406;SDS011;9839;53.364;-1.204;2023-05-10T01:55:34;7.70;;;2.67;;
19406;SDS011;9839;53.364;-1.204;2023-05-10T01:58:10;10.43;;;2.73;;
19406;SDS011;9839;53.364;-1.204;2023-05-10T02:00:45;8.30;;;2.40;;
19406;SDS011;9839;53.364;-1.204;2023-05-10T02:03:11;12.70;;;2.80;;
19406;SDS011;9839;53.364;-1.204;2023-05-10T02:05:38;11.13;;;2.60;;
19406;SDS011;9839;53.364;-1.204;2023-05-10T02:08:05;11.77;;;3.33;;
19406;SDS011;9839;53.364;-1.204;2023-05-10T02:10:32;16.40;;;3.10;;
19406;SDS011;9839;53.364;-1.204;2023-05-10T02:12:59;10.60;;;2.93;;
19406;SDS011;9839;53.364;-1.204;2023-05-10T02:15:26;10.63;;;3.53;;
19406;SDS011;9839;53.364;-1.204;2023-05-10T02:17:52;14.13;;;5.03;;
19406;SDS011;9839;53.364;-1.204;2023-05-10T02:20:20;15.20;;;4.47;;
19406;SDS011;9839;53.364;-1.204;2023-05-10T02:22:47;19.77;;;4.80;;
19406;SDS011;9839;53.364;-1.204;2023-05-10T02:25:15;13.97;;;4.67;;
19406;SDS011;9839;53.364;-1.204;2023-05-10T02:27:43;19.20;;;5.07;;
19406;SDS011;9839;53.364;-1.204;2023-05-10T02:30:09;20.70;;;5.23;;
19406;SDS011;9839;53.364;-1.204;2023-05-10T02:32:35;25.30;;;6.03;;
19406;SDS011;9839;53.364;-1.204;2023-05-10T02:35:02;15.03;;;3.83;;
19406;SDS011;9839;53.364;-1.204;2023-05-10T02:37:28;14.53;;;3.77;;
19406;SDS011;9839;53.364;-1.204;2023-05-10T02:39:55;10.93;;;4.03;;
19406;SDS011;9839;53.364;-1.204;2023-05-10T02:42:25;15.20;;;3.30;;
19406;SDS011;9839;53.364;-1.204;2023-05-10T02:44:57;13.57;;;2.80;;
19406;SDS011;9839;53.364;-1.204;2023-05-10T02:47:25;12.53;;;2.53;;
19406;SDS011;9839;53.364;-1.204;2023-05-10T02:49:50;14.33;;;3.57;;
19406;SDS011;9839;53.364;-1.204;2023-05-10T02:52:16;12.70;;;2.77;;
19406;SDS011;9839;53.364;-1.204;2023-05-10T02:54:49;15.17;;;3.43;;
19406;SDS011;9839;53.364;-1.204;2023-05-10T02:57:16;13.03;;;2.80;;
19406;SDS011;9839;53.364;-1.204;2023-05-10T02:59:43;14.77;;;3.13;;
19406;SDS011;9839;53.364;-1.204;2023-05-10T03:02:10;16.60;;;3.43;;
19406;SDS011;9839;53.364;-1.204;2023-05-10T03:04:37;10.47;;;2.60;;
19406;SDS011;9839;53.364;-1.204;2023-05-10T03:07:02;14.30;;;2.87;;
19406;SDS011;9839;53.364;-1.204;2023-05-10T03:09:28;10.57;;;3.20;;
19406;SDS011;9839;53.364;-1.204;2023-05-10T03:12:04;16.90;;;3.87;;
19406;SDS011;9839;53.364;-1.204;2023-05-10T03:17:41;14.57;;;4.27;;
19406;SDS011;9839;53.364;-1.204;2023-05-10T03:20:31;13.30;;;4.17;;
19406;SDS011;9839;53.364;-1.204;2023-05-10T03:23:04;20.90;;;5.10;;
19406;SDS011;9839;53.364;-1.204;2023-05-10T03:25:33;19.20;;;5.20;;
19406;SDS011;9839;53.364;-1.204;2023-05-10T03:27:59;20.47;;;4.83;;
19406;SDS011;9839;53.364;-1.204;2023-05-10T03:30:26;19.63;;;4.73;;
19406;SDS011;9839;53.364;-1.204;2023-05-10T03:32:52;17.00;;;4.07;;
19406;SDS011;9839;53.364;-1.204;2023-05-10T03:35:17;13.63;;;4.03;;
19406;SDS011;9839;53.364;-1.204;2023-05-10T03:37:42;13.93;;;4.40;;
19406;SDS011;9839;53.364;-1.204;2023-05-10T03:40:08;14.50;;;4.50;;
19406;SDS011;9839;53.364;-1.204;2023-05-10T03:42:35;12.93;;;4.23;;
19406;SDS011;9839;53.364;-1.204;2023-05-10T03:45:00;20.67;;;4.93;;
19406;SDS011;9839;53.364;-1.204;2023-05-10T03:47:26;14.90;;;4.27;;
19406;SDS011;9839;53.364;-1.204;2023-05-10T03:49:51;14.83;;;3.47;;
19406;SDS011;9839;53.364;-1.204;2023-05-10T03:52:16;17.30;;;4.03;;
19406;SDS011;9839;53.364;-1.204;2023-05-10T03:54:43;16.03;;;4.10;;
19406;SDS011;9839;53.364;-1.204;2023-05-10T03:57:08;19.30;;;4.93;;
19406;SDS011;9839;53.364;-1.204;2023-05-10T03:59:34;19.53;;;4.90;;
19406;SDS011;9839;53.364;-1.204;2023-05-10T04:02:00;18.03;;;4.67;;
19406;SDS011;9839;53.364;-1.204;2023-05-10T04:04:25;20.27;;;4.57;;
19406;SDS011;9839;53.364;-1.204;2023-05-10T04:06:50;16.03;;;4.07;;
19406;SDS011;9839;53.364;-1.204;2023-05-10T04:09:16;13.13;;;3.87;;
19406;SDS011;9839;53.364;-1.204;2023-05-10T04:11:42;20.47;;;4.17;;
19406;SDS011;9839;53.364;-1.204;2023-05-10T04:14:08;13.30;;;4.20;;
19406;SDS011;9839;53.364;-1.204;2023-05-10T04:16:50;12.37;;;4.00;;
19406;SDS011;9839;53.364;-1.204;2023-05-10T04:19:15;15.20;;;4.80;;
19406;SDS011;9839;53.364;-1.204;2023-05-10T04:21:40;21.53;;;4.70;;
19406;SDS011;9839;53.364;-1.204;2023-05-10T04:24:06;10.63;;;4.77;;
19406;SDS011;9839;53.364;-1.204;2023-05-10T04:26:31;12.17;;;4.20;;
19406;SDS011;9839;53.364;-1.204;2023-05-10T04:28:57;22.73;;;5.13;;
19406;SDS011;9839;53.364;-1.204;2023-05-10T04:31:22;18.20;;;4.63;;
19406;SDS011;9839;53.364;-1.204;2023-05-10T04:33:48;22.60;;;3.93;;
19406;SDS011;9839;53.364;-1.204;2023-05-10T04:36:13;17.90;;;4.23;;
19406;SDS011;9839;53.364;-1.204;2023-05-10T04:38:38;19.37;;;4.63;;
19406;SDS011;9839;53.364;-1.204;2023-05-10T04:41:07;14.43;;;4.03;;
19406;SDS011;9839;53.364;-1.204;2023-05-10T04:43:33;13.57;;;4.77;;
19406;SDS011;9839;53.364;-1.204;2023-05-10T04:45:59;12.53;;;4.27;;
19406;SDS011;9839;53.364;-1.204;2023-05-10T04:48:24;13.73;;;4.47;;
19406;SDS011;9839;53.364;-1.204;2023-05-10T04:50:50;18.23;;;5.33;;
19406;SDS011;9839;53.364;-1.204;2023-05-10T04:53:15;22.03;;;6.50;;
19406;SDS011;9839;53.364;-1.204;2023-05-10T04:55:41;16.83;;;5.93;;
19406;SDS011;9839;53.364;-1.204;2023-05-10T04:58:06;16.37;;;5.63;;
19406;SDS011;9839;53.364;-1.204;2023-05-10T05:00:32;19.33;;;5.50;;
19406;SDS011;9839;53.364;-1.204;2023-05-10T05:02:58;28.80;;;8.10;;
19406;SDS011;9839;53.364;-1.204;2023-05-10T05:05:24;16.33;;;5.30;;
19406;SDS011;9839;53.364;-1.204;2023-05-10T05:07:50;14.57;;;5.80;;
19406;SDS011;9839;53.364;-1.204;2023-05-10T05:10:15;11.03;;;5.30;;
19406;SDS011;9839;53.364;-1.204;2023-05-10T05:12:41;8.77;;;3.83;;
19406;SDS011;9839;53.364;-1.204;2023-05-10T05:15:06;11.63;;;4.57;;
19406;SDS011;9839;53.364;-1.204;2023-05-10T05:17:34;20.27;;;5.93;;
19406;SDS011;9839;53.364;-1.204;2023-05-10T05:19:59;15.23;;;5.67;;
19406;SDS011;9839;53.364;-1.204;2023-05-10T05:22:25;19.23;;;6.47;;
19406;SDS011;9839;53.364;-1.204;2023-05-10T05:24:56;14.63;;;6.17;;
19406;SDS011;9839;53.364;-1.204;2023-05-10T05:27:23;16.07;;;5.47;;
19406;SDS011;9839;53.364;-1.204;2023-05-10T05:29:53;15.73;;;5.03;;
19406;SDS011;9839;53.364;-1.204;2023-05-10T05:32:18;14.20;;;5.10;;
19406;SDS011;9839;53.364;-1.204;2023-05-10T05:34:44;19.80;;;4.83;;
19406;SDS011;9839;53.364;-1.204;2023-05-10T05:37:17;12.17;;;3.63;;
19406;SDS011;9839;53.364;-1.204;2023-05-10T05:39:43;11.10;;;3.43;;
19406;SDS011;9839;53.364;-1.204;2023-05-10T05:42:10;11.90;;;3.70;;
19406;SDS011;9839;53.364;-1.204;2023-05-10T05:44:35;14.00;;;3.50;;
19406;SDS011;9839;53.364;-1.204;2023-05-10T05:47:01;10.53;;;3.70;;
19406;SDS011;9839;53.364;-1.204;2023-05-10T05:49:26;7.70;;;3.50;;
19406;SDS011;9839;53.364;-1.204;2023-05-10T05:51:52;12.37;;;4.03;;
19406;SDS011;9839;53.364;-1.204;2023-05-10T05:54:17;8.87;;;3.73;;
19406;SDS011;9839;53.364;-1.204;2023-05-10T05:56:42;14.30;;;4.13;;
19406;SDS011;9839;53.364;-1.204;2023-05-10T05:59:09;17.67;;;5.10;;
19406;SDS011;9839;53.364;-1.204;2023-05-10T06:01:35;12.60;;;5.03;;
19406;SDS011;9839;53.364;-1.204;2023-05-10T06:04:00;14.50;;;4.33;;
19406;SDS011;9839;53.364;-1.204;2023-05-10T06:06:26;18.83;;;4.90;;
19406;SDS011;9839;53.364;-1.204;2023-05-10T06:08:51;15.23;;;4.73;;
19406;SDS011;9839;53.364;-1.204;2023-05-10T06:11:17;13.90;;;4.27;;
19406;SDS011;9839;53.364;-1.204;2023-05-10T06:13:43;11.17;;;4.07;;
19406;SDS011;9839;53.364;-1.204;2023-05-10T06:16:08;13.77;;;4.33;;
19406;SDS011;9839;53.364;-1.204;2023-05-10T06:18:33;11.37;;;3.80;;
19406;SDS011;9839;53.364;-1.204;2023-05-10T06:20:59;17.93;;;4.83;;
19406;SDS011;9839;53.364;-1.204;2023-05-10T06:23:25;11.43;;;4.47;;
19406;SDS011;9839;53.364;-1.204;2023-05-10T06:25:51;14.27;;;4.30;;
19406;SDS011;9839;53.364;-1.204;2023-05-10T06:28:17;19.97;;;4.63;;
19406;SDS011;9839;53.364;-1.204;2023-05-10T06:30:42;16.53;;;3.90;;
19406;SDS011;9839;53.364;-1.204;2023-05-10T06:33:08;14.10;;;4.17;;
19406;SDS011;9839;53.364;-1.204;2023-05-10T06:35:33;16.10;;;5.10;;
19406;SDS011;9839;53.364;-1.204;2023-05-10T06:37:59;15.17;;;4.57;;
19406;SDS011;9839;53.364;-1.204;2023-05-10T06:40:24;16.45;;;6.55;;
19406;SDS011;9839;53.364;-1.204;2023-05-10T06:42:50;8.30;;;3.93;;
19406;SDS011;9839;53.364;-1.204;2023-05-10T06:45:16;13.20;;;3.87;;
19406;SDS011;9839;53.364;-1.204;2023-05-10T06:47:42;12.02;;;4.30;;
19406;SDS011;9839;53.364;-1.204;2023-05-10T06:50:08;13.77;;;4.07;;
19406;SDS011;9839;53.364;-1.204;2023-05-10T06:52:34;14.63;;;3.80;;
19406;SDS011;9839;53.364;-1.204;2023-05-10T06:54:59;14.85;;;4.00;;
19406;SDS011;9839;53.364;-1.204;2023-05-10T06:57:25;14.80;;;3.53;;
19406;SDS011;9839;53.364;-1.204;2023-05-10T06:59:51;13.60;;;4.13;;
19406;SDS011;9839;53.364;-1.204;2023-05-10T07:02:17;10.10;;;3.40;;
19406;SDS011;9839;53.364;-1.204;2023-05-10T07:04:42;12.95;;;3.55;;
19406;SDS011;9839;53.364;-1.204;2023-05-10T07:07:08;11.73;;;3.75;;
19406;SDS011;9839;53.364;-1.204;2023-05-10T07:09:33;9.13;;;3.47;;
19406;SDS011;9839;53.364;-1.204;2023-05-10T07:11:59;10.10;;;3.35;;
19406;SDS011;9839;53.364;-1.204;2023-05-10T07:14:24;10.77;;;3.55;;
19406;SDS011;9839;53.364;-1.204;2023-05-10T07:16:50;15.02;;;3.92;;
19406;SDS011;9839;53.364;-1.204;2023-05-10T07:19:15;9.27;;;3.33;;
19406;SDS011;9839;53.364;-1.204;2023-05-10T07:21:41;13.48;;;3.42;;
19406;SDS011;9839;53.364;-1.204;2023-05-10T07:24:08;11.82;;;3.25;;
19406;SDS011;9839;53.364;-1.204;2023-05-10T07:26:33;10.45;;;3.25;;
19406;SDS011;9839;53.364;-1.204;2023-05-10T07:28:59;11.52;;;3.50;;
19406;SDS011;9839;53.364;-1.204;2023-05-10T07:31:24;6.53;;;3.03;;
19406;SDS011;9839;53.364;-1.204;2023-05-10T07:33:50;7.32;;;2.83;;
19406;SDS011;9839;53.364;-1.204;2023-05-10T07:36:15;7.50;;;2.80;;
19406;SDS011;9839;53.364;-1.204;2023-05-10T07:38:40;6.47;;;3.25;;
19406;SDS011;9839;53.364;-1.204;2023-05-10T07:41:06;6.95;;;2.53;;
19406;SDS011;9839;53.364;-1.204;2023-05-10T07:43:31;7.57;;;2.72;;
19406;SDS011;9839;53.364;-1.204;2023-05-10T07:45:57;8.60;;;3.08;;
19406;SDS011;9839;53.364;-1.204;2023-05-10T07:48:24;12.18;;;3.80;;
19406;SDS011;9839;53.364;-1.204;2023-05-10T07:50:50;7.43;;;2.55;;
19406;SDS011;9839;53.364;-1.204;2023-05-10T07:53:15;9.80;;;2.50;;
19406;SDS011;9839;53.364;-1.204;2023-05-10T07:55:41;7.00;;;2.35;;
19406;SDS011;9839;53.364;-1.204;2023-05-10T07:58:06;13.55;;;2.65;;
19406;SDS011;9839;53.364;-1.204;2023-05-10T08:00:32;8.20;;;2.30;;
19406;SDS011;9839;53.364;-1.204;2023-05-10T08:02:57;7.35;;;1.90;;
19406;SDS011;9839;53.364;-1.204;2023-05-10T08:05:23;6.63;;;2.20;;
19406;SDS011;9839;53.364;-1.204;2023-05-10T08:07:48;8.63;;;2.63;;
19406;SDS011;9839;53.364;-1.204;2023-05-10T08:10:13;7.78;;;2.75;;
19406;SDS011;9839;53.364;-1.204;2023-05-10T08:12:39;8.50;;;2.90;;
19406;SDS011;9839;53.364;-1.204;2023-05-10T08:15:05;11.38;;;3.75;;
19406;SDS011;9839;53.364;-1.204;2023-05-10T08:17:31;10.98;;;3.53;;
19406;SDS011;9839;53.364;-1.204;2023-05-10T08:19:57;13.75;;;3.03;;
19406;SDS011;9839;53.364;-1.204;2023-05-10T08:22:22;4.95;;;2.42;;
19406;SDS011;9839;53.364;-1.204;2023-05-10T08:24:48;7.35;;;2.35;;
19406;SDS011;9839;53.364;-1.204;2023-05-10T08:27:13;5.47;;;2.28;;
19406;SDS011;9839;53.364;-1.204;2023-05-10T08:29:39;3.58;;;1.80;;
19406;SDS011;9839;53.364;-1.204;2023-05-10T08:32:04;13.32;;;2.55;;
19406;SDS011;9839;53.364;-1.204;2023-05-10T08:34:30;4.40;;;1.70;;
19406;SDS011;9839;53.364;-1.204;2023-05-10T08:36:56;3.47;;;1.55;;
19406;SDS011;9839;53.364;-1.204;2023-05-10T08:39:21;6.78;;;1.95;;
19406;SDS011;9839;53.364;-1.204;2023-05-10T08:41:48;7.35;;;1.92;;
19406;SDS011;9839;53.364;-1.204;2023-05-10T08:44:16;8.35;;;1.88;;
19406;SDS011;9839;53.364;-1.204;2023-05-10T08:46:43;6.45;;;1.98;;
19406;SDS011;9839;53.364;-1.204;2023-05-10T08:49:11;7.60;;;1.80;;
19406;SDS011;9839;53.364;-1.204;2023-05-10T08:51:40;8.80;;;2.60;;
19406;SDS011;9839;53.364;-1.204;2023-05-10T08:54:06;4.50;;;1.90;;
19406;SDS011;9839;53.364;-1.204;2023-05-10T08:56:31;5.78;;;1.67;;
19406;SDS011;9839;53.364;-1.204;2023-05-10T08:58:56;3.85;;;1.70;;
19406;SDS011;9839;53.364;-1.204;2023-05-10T09:01:22;5.07;;;1.60;;
19406;SDS011;9839;53.364;-1.204;2023-05-10T09:03:48;4.40;;;1.90;;
19406;SDS011;9839;53.364;-1.204;2023-05-10T09:06:13;4.93;;;1.83;;
19406;SDS011;9839;53.364;-1.204;2023-05-10T09:08:41;2.83;;;1.83;;
19406;SDS011;9839;53.364;-1.204;2023-05-10T09:11:07;4.20;;;1.80;;
19406;SDS011;9839;53.364;-1.204;2023-05-10T09:13:32;4.47;;;2.00;;
19406;SDS011;9839;53.364;-1.204;2023-05-10T09:15:58;7.63;;;2.03;;
19406;SDS011;9839;53.364;-1.204;2023-05-10T09:18:24;6.60;;;1.95;;
19406;SDS011;9839;53.364;-1.204;2023-05-10T09:20:49;4.70;;;2.22;;
19406;SDS011;9839;53.364;-1.204;2023-05-10T09:23:15;4.25;;;1.95;;
19406;SDS011;9839;53.364;-1.204;2023-05-10T09:25:41;5.63;;;2.17;;
19406;SDS011;9839;53.364;-1.204;2023-05-10T09:28:07;5.50;;;2.10;;
19406;SDS011;9839;53.364;-1.204;2023-05-10T09:30:33;7.47;;;2.33;;
19406;SDS011;9839;53.364;-1.204;2023-05-10T09:32:59;6.82;;;1.90;;
19406;SDS011;9839;53.364;-1.204;2023-05-10T09:35:26;4.93;;;1.80;;
19406;SDS011;9839;53.364;-1.204;2023-05-10T09:37:56;5.75;;;1.75;;
19406;SDS011;9839;53.364;-1.204;2023-05-10T09:40:26;2.05;;;1.30;;
19406;SDS011;9839;53.364;-1.204;2023-05-10T09:43:01;4.57;;;1.33;;
19406;SDS011;9839;53.364;-1.204;2023-05-10T09:45:32;3.28;;;1.48;;
19406;SDS011;9839;53.364;-1.204;2023-05-10T09:47:59;2.72;;;1.20;;
19406;SDS011;9839;53.364;-1.204;2023-05-10T09:50:26;10.23;;;1.80;;
19406;SDS011;9839;53.364;-1.204;2023-05-10T09:52:56;3.05;;;1.30;;
19406;SDS011;9839;53.364;-1.204;2023-05-10T09:57:58;3.92;;;1.65;;
19406;SDS011;9839;53.364;-1.204;2023-05-10T10:00:25;6.40;;;1.45;;
19406;SDS011;9839;53.364;-1.204;2023-05-10T10:02:56;1.75;;;1.00;;
19406;SDS011;9839;53.364;-1.204;2023-05-10T10:05:29;21.08;;;4.43;;
19406;SDS011;9839;53.364;-1.204;2023-05-10T10:07:59;5.97;;;1.33;;
19406;SDS011;9839;53.364;-1.204;2023-05-10T10:10:27;5.20;;;1.27;;
19406;SDS011;9839;53.364;-1.204;2023-05-10T10:12:54;6.63;;;1.20;;
19406;SDS011;9839;53.364;-1.204;2023-05-10T10:15:20;8.93;;;1.27;;
19406;SDS011;9839;53.364;-1.204;2023-05-10T10:17:46;8.45;;;1.60;;
19406;SDS011;9839;53.364;-1.204;2023-05-10T10:20:13;5.10;;;1.50;;
19406;SDS011;9839;53.364;-1.204;2023-05-10T10:22:39;3.85;;;1.25;;
19406;SDS011;9839;53.364;-1.204;2023-05-10T10:25:05;5.10;;;1.20;;
19406;SDS011;9839;53.364;-1.204;2023-05-10T10:35:19;6.22;;;1.48;;
19406;SDS011;9839;53.364;-1.204;2023-05-10T10:37:45;4.07;;;1.15;;
19406;SDS011;9839;53.364;-1.204;2023-05-10T10:42:50;3.97;;;1.67;;
19406;SDS011;9839;53.364;-1.204;2023-05-10T10:45:16;8.10;;;1.67;;
19406;SDS011;9839;53.364;-1.204;2023-05-10T10:47:43;8.05;;;1.52;;
19406;SDS011;9839;53.364;-1.204;2023-05-10T10:50:10;9.60;;;2.15;;
19406;SDS011;9839;53.364;-1.204;2023-05-10T10:52:40;3.47;;;0.95;;
19406;SDS011;9839;53.364;-1.204;2023-05-10T10:55:14;3.28;;;1.17;;
19406;SDS011;9839;53.364;-1.204;2023-05-10T10:57:46;4.15;;;1.40;;
19406;SDS011;9839;53.364;-1.204;2023-05-10T11:07:56;2.65;;;1.00;;
19406;SDS011;9839;53.364;-1.204;2023-05-10T11:10:23;8.38;;;1.02;;
19406;SDS011;9839;53.364;-1.204;2023-05-10T11:15:29;7.07;;;1.27;;
19406;SDS011;9839;53.364;-1.204;2023-05-10T11:17:58;2.35;;;1.05;;
19406;SDS011;9839;53.364;-1.204;2023-05-10T11:20:24;4.50;;;1.08;;
19406;SDS011;9839;53.364;-1.204;2023-05-10T11:22:58;7.30;;;1.10;;
19406;SDS011;9839;53.364;-1.204;2023-05-10T11:25:39;3.25;;;1.00;;
19406;SDS011;9839;53.364;-1.204;2023-05-10T11:28:06;3.40;;;1.02;;
19406;SDS011;9839;53.364;-1.204;2023-05-10T11:30:31;3.88;;;1.63;;
19406;SDS011;9839;53.364;-1.204;2023-05-10T11:32:57;3.72;;;1.63;;
19406;SDS011;9839;53.364;-1.204;2023-05-10T11:35:22;7.50;;;1.42;;
19406;SDS011;9839;53.364;-1.204;2023-05-10T11:37:48;2.10;;;1.00;;
19406;SDS011;9839;53.364;-1.204;2023-05-10T11:40:13;6.18;;;1.30;;
19406;SDS011;9839;53.364;-1.204;2023-05-10T11:42:39;3.53;;;1.10;;
19406;SDS011;9839;53.364;-1.204;2023-05-10T11:45:05;5.13;;;1.48;;
19406;SDS011;9839;53.364;-1.204;2023-05-10T11:47:31;3.45;;;1.13;;
19406;SDS011;9839;53.364;-1.204;2023-05-10T11:49:57;2.92;;;1.20;;
19406;SDS011;9839;53.364;-1.204;2023-05-10T11:52:22;4.63;;;1.75;;
19406;SDS011;9839;53.364;-1.204;2023-05-10T11:54:52;4.97;;;1.65;;
19406;SDS011;9839;53.364;-1.204;2023-05-10T11:57:18;6.32;;;1.90;;
19406;SDS011;9839;53.364;-1.204;2023-05-10T11:59:45;6.30;;;1.73;;
19406;SDS011;9839;53.364;-1.204;2023-05-10T12:02:11;5.45;;;1.73;;
19406;SDS011;9839;53.364;-1.204;2023-05-10T12:04:37;3.13;;;1.20;;
19406;SDS011;9839;53.364;-1.204;2023-05-10T12:07:02;3.80;;;1.55;;
19406;SDS011;9839;53.364;-1.204;2023-05-10T12:09:28;7.10;;;1.70;;
19406;SDS011;9839;53.364;-1.204;2023-05-10T12:11:55;2.45;;;1.60;;
19406;SDS011;9839;53.364;-1.204;2023-05-10T12:14:21;6.63;;;1.70;;
19406;SDS011;9839;53.364;-1.204;2023-05-10T12:16:47;3.47;;;2.20;;
19406;SDS011;9839;53.364;-1.204;2023-05-10T12:19:13;2.08;;;1.33;;
19406;SDS011;9839;53.364;-1.204;2023-05-10T12:21:44;4.80;;;1.50;;
19406;SDS011;9839;53.364;-1.204;2023-05-10T12:24:10;2.90;;;1.58;;
19406;SDS011;9839;53.364;-1.204;2023-05-10T12:26:35;6.10;;;1.50;;
19406;SDS011;9839;53.364;-1.204;2023-05-10T12:29:14;4.63;;;1.50;;
19406;SDS011;9839;53.364;-1.204;2023-05-10T12:31:53;6.38;;;1.77;;
19406;SDS011;9839;53.364;-1.204;2023-05-10T12:34:31;3.97;;;1.67;;
19406;SDS011;9839;53.364;-1.204;2023-05-10T12:36:58;2.63;;;1.05;;
19406;SDS011;9839;53.364;-1.204;2023-05-10T12:39:24;2.00;;;1.00;;
19406;SDS011;9839;53.364;-1.204;2023-05-10T12:41:50;2.00;;;1.20;;
19406;SDS011;9839;53.364;-1.204;2023-05-10T12:44:16;4.22;;;1.20;;
19406;SDS011;9839;53.364;-1.204;2023-05-10T12:46:42;3.00;;;1.13;;
19406;SDS011;9839;53.364;-1.204;2023-05-10T12:49:07;1.92;;;0.90;;
19406;SDS011;9839;53.364;-1.204;2023-05-10T12:51:33;3.50;;;1.20;;
19406;SDS011;9839;53.364;-1.204;2023-05-10T12:53:58;1.35;;;0.80;;
19406;SDS011;9839;53.364;-1.204;2023-05-10T12:56:24;3.17;;;1.48;;
19406;SDS011;9839;53.364;-1.204;2023-05-10T12:58:49;2.28;;;1.15;;
19406;SDS011;9839;53.364;-1.204;2023-05-10T13:01:15;4.35;;;1.33;;
19406;SDS011;9839;53.364;-1.204;2023-05-10T13:03:41;19.30;;;1.70;;
19406;SDS011;9839;53.364;-1.204;2023-05-10T13:06:08;6.10;;;1.65;;
19406;SDS011;9839;53.364;-1.204;2023-05-10T13:08:33;5.50;;;1.93;;
19406;SDS011;9839;53.364;-1.204;2023-05-10T13:10:59;3.77;;;2.03;;
19406;SDS011;9839;53.364;-1.204;2023-05-10T13:13:25;12.67;;;2.27;;
19406;SDS011;9839;53.364;-1.204;2023-05-10T13:15:51;3.07;;;2.00;;
19406;SDS011;9839;53.364;-1.204;2023-05-10T13:18:16;4.57;;;2.30;;
19406;SDS011;9839;53.364;-1.204;2023-05-10T13:20:42;4.17;;;2.80;;
19406;SDS011;9839;53.364;-1.204;2023-05-10T13:23:09;6.10;;;2.50;;
19406;SDS011;9839;53.364;-1.204;2023-05-10T13:25:35;10.63;;;3.53;;
19406;SDS011;9839;53.364;-1.204;2023-05-10T13:28:00;9.17;;;4.00;;
19406;SDS011;9839;53.364;-1.204;2023-05-10T13:30:26;19.52;;;4.60;;
19406;SDS011;9839;53.364;-1.204;2023-05-10T13:32:51;13.90;;;5.22;;
19406;SDS011;9839;53.364;-1.204;2023-05-10T13:35:17;15.00;;;5.55;;
19406;SDS011;9839;53.364;-1.204;2023-05-10T13:37:42;18.13;;;5.60;;
19406;SDS011;9839;53.364;-1.204;2023-05-10T13:40:08;16.63;;;6.78;;
19406;SDS011;9839;53.364;-1.204;2023-05-10T13:42:34;18.08;;;7.35;;
19406;SDS011;9839;53.364;-1.204;2023-05-10T13:44:59;20.73;;;7.63;;
19406;SDS011;9839;53.364;-1.204;2023-05-10T13:47:26;25.20;;;9.00;;
19406;SDS011;9839;53.364;-1.204;2023-05-10T13:49:52;22.63;;;8.88;;
19406;SDS011;9839;53.364;-1.204;2023-05-10T13:52:18;9.60;;;4.68;;
19406;SDS011;9839;53.364;-1.204;2023-05-10T13:54:43;5.95;;;3.40;;
19406;SDS011;9839;53.364;-1.204;2023-05-10T13:57:09;4.45;;;2.28;;
19406;SDS011;9839;53.364;-1.204;2023-05-10T13:59:36;2.40;;;1.48;;
19406;SDS011;9839;53.364;-1.204;2023-05-10T14:02:02;2.20;;;1.80;;
19406;SDS011;9839;53.364;-1.204;2023-05-10T14:04:28;2.10;;;1.50;;
19406;SDS011;9839;53.364;-1.204;2023-05-10T14:06:54;3.55;;;1.98;;
19406;SDS011;9839;53.364;-1.204;2023-05-10T14:09:19;4.75;;;2.15;;
19406;SDS011;9839;53.364;-1.204;2023-05-10T14:11:45;10.95;;;2.35;;
19406;SDS011;9839;53.364;-1.204;2023-05-10T14:14:10;2.65;;;1.92;;
19406;SDS011;9839;53.364;-1.204;2023-05-10T14:16:36;2.90;;;1.92;;
19406;SDS011;9839;53.364;-1.204;2023-05-10T14:19:02;2.75;;;1.73;;
19406;SDS011;9839;53.364;-1.204;2023-05-10T14:21:27;3.53;;;1.95;;
19406;SDS011;9839;53.364;-1.204;2023-05-10T14:23:55;5.75;;;2.58;;
19406;SDS011;9839;53.364;-1.204;2023-05-10T14:26:21;4.45;;;2.15;;
19406;SDS011;9839;53.364;-1.204;2023-05-10T14:28:47;2.75;;;1.52;;
19406;SDS011;9839;53.364;-1.204;2023-05-10T14:31:12;1.83;;;1.30;;
19406;SDS011;9839;53.364;-1.204;2023-05-10T14:33:39;2.25;;;0.93;;
19406;SDS011;9839;53.364;-1.204;2023-05-10T14:36:05;0.93;;;0.73;;
19406;SDS011;9839;53.364;-1.204;2023-05-10T14:38:31;3.03;;;0.88;;
19406;SDS011;9839;53.364;-1.204;2023-05-10T14:40:56;3.03;;;0.75;;
19406;SDS011;9839;53.364;-1.204;2023-05-10T14:43:22;29.30;;;2.85;;
19406;SDS011;9839;53.364;-1.204;2023-05-10T14:45:47;0.93;;;0.68;;
19406;SDS011;9839;53.364;-1.204;2023-05-10T14:48:13;1.60;;;0.70;;
19406;SDS011;9839;53.364;-1.204;2023-05-10T14:50:41;1.52;;;0.90;;
19406;SDS011;9839;53.364;-1.204;2023-05-10T14:53:06;1.95;;;0.90;;
19406;SDS011;9839;53.364;-1.204;2023-05-10T14:55:32;2.28;;;1.33;;
19406;SDS011;9839;53.364;-1.204;2023-05-10T14:57:57;0.82;;;0.70;;
19406;SDS011;9839;53.364;-1.204;2023-05-10T15:00:23;1.80;;;0.73;;
19406;SDS011;9839;53.364;-1.204;2023-05-10T15:02:48;1.48;;;0.70;;
19406;SDS011;9839;53.364;-1.204;2023-05-10T15:05:14;2.63;;;0.50;;
19406;SDS011;9839;53.364;-1.204;2023-05-10T15:07:40;1.73;;;0.98;;
19406;SDS011;9839;53.364;-1.204;2023-05-10T15:10:05;1.90;;;1.30;;
19406;SDS011;9839;53.364;-1.204;2023-05-10T15:12:31;2.20;;;1.48;;
19406;SDS011;9839;53.364;-1.204;2023-05-10T15:14:57;3.38;;;1.20;;
19406;SDS011;9839;53.364;-1.204;2023-05-10T15:17:22;2.30;;;0.70;;